Time;durP1;ratioP1;P1;durP2;ratioP2;P2;SDS_P1;SDS_P2;PMS_P1;PMS_P2;Temp;Humidity;BMP_temperature;BMP_pressure;BME280_temperature;BME280_humidity;BME280_pressure;Samples;Min_cycle;Max_cycle;Signal;HPM_P1;HPM_P2
2021/07/26 00:01:42;;;;;;;6.22;4.35;;;;;;;18.73;67.64;95375.06;5110481;28;20130;-68
2021/07/26 00:04:09;;;;;;;8.77;3.67;;;;;;;18.72;67.58;95369.00;5108471;28;20043;-68
2021/07/26 00:06:36;;;;;;;7.40;3.95;;;;;;;18.61;67.51;95361.38;5108106;27;20036;-68
2021/07/26 00:09:03;;;;;;;5.28;4.00;;;;;;;18.42;68.47;95359.34;5111111;27;20043;-68
2021/07/26 00:11:30;;;;;;;6.80;4.13;;;;;;;18.44;68.89;95362.50;5110488;27;20055;-68
2021/07/26 00:13:56;;;;;;;9.27;3.88;;;;;;;18.29;69.42;95355.41;5110199;27;20397;-68
2021/07/26 00:16:23;;;;;;;8.75;4.38;;;;;;;18.19;70.26;95354.63;5110424;27;20401;-69
2021/07/26 00:18:50;;;;;;;7.65;4.13;;;;;;;18.28;69.68;95353.03;5110068;27;20044;-68
2021/07/26 00:21:17;;;;;;;8.45;4.03;;;;;;;18.31;69.64;95352.47;5111924;27;20462;-69
2021/07/26 00:23:44;;;;;;;8.88;3.25;;;;;;;18.17;70.67;95335.63;5112363;27;20385;-68
2021/07/26 00:26:11;;;;;;;10.98;4.10;;;;;;;18.09;71.22;95332.47;5113092;27;20104;-68
2021/07/26 00:28:39;;;;;;;10.35;3.90;;;;;;;18.10;70.39;95323.53;5110399;27;20047;-69
2021/07/26 00:31:05;;;;;;;8.95;4.32;;;;;;;18.17;71.91;95325.09;5111771;27;20038;-69
2021/07/26 00:34:15;;;;;;;7.28;4.95;;;;;;;18.17;71.44;95319.81;5109959;27;20422;-68
2021/07/26 00:36:53;;;;;;;8.35;4.00;;;;;;;18.03;71.67;95336.19;5109296;27;20050;-68
2021/07/26 00:39:23;;;;;;;10.18;3.92;;;;;;;18.01;71.37;95333.03;5109085;27;20048;-68
2021/07/26 00:41:51;;;;;;;7.18;4.93;;;;;;;17.93;71.68;95334.38;5108383;27;20040;-69
2021/07/26 00:44:19;;;;;;;5.95;4.10;;;;;;;17.92;72.54;95334.63;5108625;27;20848;-68
2021/07/26 00:46:48;;;;;;;11.90;5.13;;;;;;;17.91;72.53;95338.31;5109217;27;20035;-68
2021/07/26 00:49:16;;;;;;;7.93;4.00;;;;;;;17.74;72.68;95336.69;5091005;28;20043;-68
2021/07/26 00:51:48;;;;;;;8.15;4.70;;;;;;;17.68;72.51;95345.66;5110119;27;20521;-68
2021/07/26 00:54:24;;;;;;;7.80;5.25;;;;;;;17.82;72.30;95350.41;5108350;27;20052;-68
2021/07/26 00:56:53;;;;;;;15.73;5.45;;;;;;;17.96;72.04;95357.53;5107895;28;20110;-68
2021/07/26 00:59:20;;;;;;;8.63;5.60;;;;;;;18.04;71.96;95358.88;5109751;27;20481;-69
2021/07/26 01:01:47;;;;;;;5.43;4.60;;;;;;;18.07;71.73;95362.81;5111535;27;20393;-69
2021/07/26 01:04:14;;;;;;;8.80;5.38;;;;;;;18.09;71.85;95366.75;5109782;27;20035;-68
2021/07/26 01:06:41;;;;;;;11.43;4.50;;;;;;;18.13;70.63;95373.09;5111431;27;20031;-68
2021/07/26 01:09:08;;;;;;;7.63;4.70;;;;;;;18.17;70.99;95367.25;5111522;27;20043;-68
2021/07/26 01:11:35;;;;;;;6.43;4.63;;;;;;;18.07;72.33;95347.78;5109822;27;20462;-68
2021/07/26 01:14:03;;;;;;;7.47;5.32;;;;;;;17.85;72.74;95344.59;5111010;27;20040;-68
2021/07/26 01:16:30;;;;;;;13.40;5.32;;;;;;;17.74;72.44;95341.97;5109940;27;20154;-68
2021/07/26 01:19:01;;;;;;;6.28;5.07;;;;;;;17.71;73.21;95350.38;5108379;27;20719;-68
2021/07/26 01:21:30;;;;;;;9.85;5.28;;;;;;;17.52;73.61;95333.50;5090445;27;20045;-67
2021/07/26 01:23:58;;;;;;;11.70;5.03;;;;;;;17.31;74.53;95325.59;5110763;27;20413;-67
2021/07/26 01:26:26;;;;;;;10.65;5.55;;;;;;;17.20;76.05;95324.00;5090575;28;20520;-67
2021/07/26 01:28:59;;;;;;;18.42;7.55;;;;;;;17.12;76.04;95319.25;5106517;28;20425;-67
2021/07/26 01:31:27;;;;;;;9.52;6.15;;;;;;;17.08;76.52;95326.06;5107467;27;20043;-67
2021/07/26 01:33:54;;;;;;;8.80;5.63;;;;;;;17.07;76.55;95324.47;5109385;27;20042;-67
2021/07/26 01:36:22;;;;;;;13.27;5.95;;;;;;;17.08;76.40;95331.34;5090136;27;20044;-67
2021/07/26 01:38:53;;;;;;;10.32;4.90;;;;;;;17.06;75.82;95328.97;5112380;27;20100;-67
2021/07/26 01:41:23;;;;;;;7.35;4.97;;;;;;;16.99;76.21;95331.84;5107805;28;20058;-67
2021/07/26 01:44:07;;;;;;;11.18;6.20;;;;;;;16.99;76.89;95318.69;5108969;27;20040;-66
2021/07/26 01:46:55;;;;;;;6.55;5.43;;;;;;;16.93;77.84;95330.25;5108555;27;20039;-67
2021/07/26 01:49:48;;;;;;;12.80;6.05;;;;;;;16.89;77.61;95326.56;5079090;28;20039;-67
2021/07/26 01:52:17;;;;;;;18.45;5.80;;;;;;;16.94;76.89;95331.03;5091070;28;20039;-67
2021/07/26 01:54:44;;;;;;;8.00;5.35;;;;;;;16.95;76.78;95328.16;5091371;27;20059;-67
2021/07/26 01:57:12;;;;;;;6.65;5.68;;;;;;;16.97;76.23;95336.56;5109506;27;20043;-67
2021/07/26 01:59:39;;;;;;;10.90;5.82;;;;;;;17.00;76.62;95336.06;5089123;28;20432;-67
2021/07/26 02:02:06;;;;;;;14.10;5.05;;;;;;;16.91;76.53;95334.97;5107001;27;20036;-67
2021/07/26 02:04:33;;;;;;;6.80;4.50;;;;;;;16.88;76.62;95359.16;5108582;27;20089;-67
2021/07/26 02:07:00;;;;;;;5.57;4.53;;;;;;;16.89;76.01;95360.75;5089722;28;20054;-67
2021/07/26 02:09:27;;;;;;;6.45;5.10;;;;;;;16.94;75.95;95360.78;5113015;27;20039;-67
2021/07/26 02:11:53;;;;;;;6.30;4.50;;;;;;;16.93;75.34;95348.66;5108492;27;20433;-67
2021/07/26 02:14:20;;;;;;;5.78;4.90;;;;;;;17.06;75.84;95365.03;5091502;28;20046;-67
2021/07/26 02:16:51;;;;;;;9.15;4.93;;;;;;;17.04;76.40;95359.22;5090762;28;20122;-67
2021/07/26 02:19:19;;;;;;;9.68;4.97;;;;;;;16.97;77.02;95352.34;5091823;28;20047;-67
2021/07/26 02:21:46;;;;;;;10.88;5.00;;;;;;;16.93;76.46;95356.56;5089543;28;20137;-67
2021/07/26 02:24:13;;;;;;;5.53;4.45;;;;;;;16.83;76.91;95345.97;5108407;27;20409;-67
2021/07/26 02:26:40;;;;;;;9.55;4.03;;;;;;;16.81;76.93;95354.09;5106694;28;20039;-67
2021/07/26 02:29:06;;;;;;;5.43;4.28;;;;;;;16.87;77.66;95357.59;5107028;27;20511;-67
2021/07/26 02:31:33;;;;;;;7.47;5.05;;;;;;;16.86;77.41;95366.53;5109368;27;20046;-67
2021/07/26 02:34:01;;;;;;;6.63;5.15;;;;;;;16.85;77.38;95370.19;5109443;27;20039;-67
2021/07/26 02:36:28;;;;;;;11.57;6.03;;;;;;;16.87;78.29;95362.84;5110661;27;20044;-67
2021/07/26 02:38:54;;;;;;;8.45;4.22;;;;;;;16.91;77.61;95371.81;5108093;28;20043;-67
2021/07/26 02:41:21;;;;;;;7.10;4.60;;;;;;;16.95;76.85;95370.25;5107818;27;20054;-67
2021/07/26 02:43:48;;;;;;;7.97;4.40;;;;;;;17.04;77.10;95372.38;5107835;28;20551;-67
2021/07/26 02:46:15;;;;;;;7.18;4.20;;;;;;;17.10;76.85;95372.13;5109801;28;20445;-67
2021/07/26 02:48:41;;;;;;;7.80;4.38;;;;;;;17.03;76.43;95376.06;5110596;27;20035;-67
2021/07/26 02:51:08;;;;;;;8.57;4.35;;;;;;;17.00;76.33;95378.16;5095396;28;20043;-66
2021/07/26 02:53:35;;;;;;;6.35;4.25;;;;;;;17.09;75.38;95385.56;5105827;28;20047;-67
2021/07/26 02:56:07;;;;;;;5.85;4.35;;;;;;;17.03;75.52;95371.56;5105349;28;20051;-67
2021/07/26 02:58:34;;;;;;;9.52;4.80;;;;;;;17.04;76.39;95382.91;5106259;28;20059;-67
2021/07/26 03:01:01;;;;;;;7.38;4.05;;;;;;;17.06;75.73;95378.19;5108855;27;20048;-67
2021/07/26 03:03:28;;;;;;;5.53;4.45;;;;;;;17.02;76.50;95385.00;5106558;28;20047;-67
2021/07/26 03:05:55;;;;;;;9.82;5.40;;;;;;;16.94;76.43;95379.19;5106537;28;20050;-67
2021/07/26 03:08:22;;;;;;;5.13;4.40;;;;;;;16.89;76.85;95381.81;5106815;28;20052;-67
2021/07/26 03:10:49;;;;;;;8.15;4.90;;;;;;;16.83;77.72;95380.19;5107759;28;20062;-67
2021/07/26 03:13:17;;;;;;;11.68;4.88;;;;;;;16.74;78.56;95373.81;5087675;28;20432;-67
2021/07/26 03:15:44;;;;;;;7.65;5.40;;;;;;;16.60;79.26;95374.28;5110543;28;20040;-67
2021/07/26 03:18:12;;;;;;;10.10;5.13;;;;;;;16.54;78.82;95377.13;5104640;28;20467;-67
2021/07/26 03:20:38;;;;;;;11.88;5.55;;;;;;;16.54;79.28;95385.78;5105066;28;20398;-67
2021/07/26 03:23:09;;;;;;;14.75;5.53;;;;;;;16.57;78.95;95390.56;5109115;28;20504;-67
2021/07/26 03:25:41;;;;;;;8.00;4.72;;;;;;;16.62;78.40;95393.22;5091185;28;20119;-67
2021/07/26 03:28:08;;;;;;;8.93;4.22;;;;;;;16.68;77.97;95390.63;5108462;28;20040;-67
2021/07/26 03:30:36;;;;;;;6.80;4.47;;;;;;;16.59;78.68;95388.47;5105224;28;20492;-67
2021/07/26 03:33:03;;;;;;;8.68;5.28;;;;;;;16.57;79.95;95390.56;5108088;28;20044;-67
2021/07/26 03:35:29;;;;;;;9.73;4.30;;;;;;;16.51;80.19;95386.31;5090556;28;20031;-67
2021/07/26 03:37:56;;;;;;;7.22;5.05;;;;;;;16.55;81.19;95390.03;5108477;28;20035;-67
2021/07/26 03:40:23;;;;;;;8.82;4.53;;;;;;;16.49;80.44;95382.34;5107169;28;20114;-67
2021/07/26 03:42:50;;;;;;;7.07;5.32;;;;;;;16.49;80.67;95388.38;5110151;27;20122;-67
2021/07/26 03:45:19;;;;;;;6.43;4.88;;;;;;;16.46;80.65;95394.19;5113451;27;20036;-67
2021/07/26 03:47:47;;;;;;;8.75;4.65;;;;;;;16.48;80.44;95397.34;5109055;27;20067;-68
2021/07/26 03:50:14;;;;;;;5.70;4.55;;;;;;;16.39;81.14;95388.34;5107937;28;20062;-67
2021/07/26 03:52:46;;;;;;;7.85;4.15;;;;;;;16.43;81.49;95399.94;5113433;27;20046;-67
2021/07/26 03:55:15;;;;;;;6.15;5.53;;;;;;;16.45;82.03;95403.09;5109781;27;20105;-67
2021/07/26 03:57:42;;;;;;;5.65;4.40;;;;;;;16.55;81.71;95408.44;5113991;27;20418;-67
2021/07/26 04:00:11;;;;;;;9.30;4.90;;;;;;;16.60;81.23;95405.84;5110783;27;20582;-67
2021/07/26 04:02:42;;;;;;;11.57;4.97;;;;;;;16.67;81.04;95405.59;5110109;27;20069;-67
2021/07/26 04:05:26;;;;;;;7.63;5.38;;;;;;;16.76;81.14;95406.72;5110027;28;20044;-67
2021/07/26 04:07:53;;;;;;;10.13;4.68;;;;;;;16.79;81.95;95408.03;5110710;27;20066;-67
2021/07/26 04:10:20;;;;;;;9.30;4.68;;;;;;;16.80;81.72;95407.00;5109457;28;20047;-67
2021/07/26 04:12:50;;;;;;;9.48;4.45;;;;;;;16.82;81.39;95410.94;5093745;28;20051;-67
2021/07/26 04:15:17;;;;;;;8.82;5.18;;;;;;;16.88;81.97;95406.53;5111687;27;20035;-67
2021/07/26 04:17:44;;;;;;;18.95;5.20;;;;;;;16.89;82.88;95402.03;5093595;27;20062;-67
2021/07/26 04:20:11;;;;;;;8.20;6.07;;;;;;;16.92;82.96;95399.69;5118861;27;20058;-68
2021/07/26 04:22:38;;;;;;;7.60;4.80;;;;;;;17.03;82.37;95402.38;5121604;27;20436;-67
2021/07/26 04:25:06;;;;;;;10.43;4.75;;;;;;;17.10;81.89;95405.56;5119977;27;20118;-67
2021/07/26 04:27:35;;;;;;;13.43;4.32;;;;;;;17.21;80.76;95409.81;5121647;27;20039;-67
2021/07/26 04:30:06;;;;;;;10.55;5.82;;;;;;;17.37;79.99;95405.38;5122892;27;20484;-67
2021/07/26 04:32:51;;;;;;;7.38;4.55;;;;;;;17.46;79.69;95413.56;5125553;27;20066;-68
2021/07/26 04:35:18;;;;;;;9.35;4.47;;;;;;;17.45;80.25;95414.59;5123132;27;20089;-67
2021/07/26 04:37:45;;;;;;;7.45;4.47;;;;;;;17.53;80.52;95407.00;5121598;27;20043;-67
2021/07/26 04:40:12;;;;;;;6.05;4.40;;;;;;;17.56;79.62;95400.44;5120678;27;20119;-67
2021/07/26 04:42:41;;;;;;;8.82;4.30;;;;;;;17.59;79.23;95410.41;5122379;27;20035;-67
2021/07/26 04:45:09;;;;;;;11.65;6.13;;;;;;;17.69;78.60;95420.97;5119819;27;20046;-67
2021/07/26 04:47:36;;;;;;;12.40;4.97;;;;;;;17.82;78.47;95418.91;5117166;27;20068;-67
2021/07/26 04:50:04;;;;;;;8.57;4.10;;;;;;;17.92;77.72;95421.59;5124137;27;20039;-68
2021/07/26 04:52:31;;;;;;;8.18;4.63;;;;;;;18.07;77.97;95421.56;5118602;27;20039;-68
2021/07/26 04:54:58;;;;;;;7.63;4.00;;;;;;;18.21;76.88;95426.34;5111084;27;20052;-68
2021/07/26 04:57:25;;;;;;;9.75;4.50;;;;;;;18.26;78.12;95423.69;5117962;27;20567;-68
2021/07/26 04:59:52;;;;;;;10.80;4.03;;;;;;;18.34;76.65;95431.06;5112995;27;20045;-68
2021/07/26 05:02:19;;;;;;;7.05;3.80;;;;;;;18.43;75.78;95426.81;5096074;28;20051;-68
2021/07/26 05:04:46;;;;;;;5.95;4.40;;;;;;;18.54;75.62;95431.03;5114675;27;20036;-68
2021/07/26 05:07:13;;;;;;;9.40;4.70;;;;;;;18.65;74.81;95428.38;5108051;28;20055;-68
2021/07/26 05:09:40;;;;;;;9.95;4.30;;;;;;;18.75;74.16;95431.00;5106766;27;20048;-67
2021/07/26 05:12:12;;;;;;;8.73;4.07;;;;;;;18.87;72.21;95434.19;5089584;28;20043;-68
2021/07/26 05:14:44;;;;;;;8.02;3.97;;;;;;;18.99;71.10;95435.72;5108075;27;20501;-68
2021/07/26 05:17:11;;;;;;;13.50;4.13;;;;;;;19.09;70.04;95430.41;5110644;27;20478;-67
2021/07/26 05:19:38;;;;;;;7.72;3.50;;;;;;;19.18;68.98;95443.84;5118859;27;20126;-67
2021/07/26 05:22:05;;;;;;;7.63;3.55;;;;;;;19.30;69.39;95441.66;5092008;27;20377;-67
2021/07/26 05:24:32;;;;;;;5.32;3.72;;;;;;;19.43;67.83;95440.31;5108669;27;20043;-67
2021/07/26 05:27:01;;;;;;;10.57;3.83;;;;;;;19.55;66.55;95440.75;5109895;27;20036;-67
2021/07/26 05:29:28;;;;;;;5.40;3.63;;;;;;;19.59;66.15;95433.88;5095735;27;20054;-67
2021/07/26 05:31:56;;;;;;;11.55;4.10;;;;;;;19.72;66.15;95442.25;5109082;28;20052;-67
2021/07/26 05:34:23;;;;;;;8.43;3.97;;;;;;;19.84;65.82;95434.78;5110997;27;20421;-67
2021/07/26 05:36:50;;;;;;;7.75;3.90;;;;;;;19.97;65.76;95433.38;5110339;27;20050;-68
2021/07/26 05:39:17;;;;;;;11.85;4.88;;;;;;;20.01;65.60;95427.28;5109336;28;20501;-68
2021/07/26 05:41:44;;;;;;;8.20;3.75;;;;;;;20.09;64.84;95422.47;5110870;27;20096;-68
2021/07/26 05:44:11;;;;;;;10.60;3.35;;;;;;;20.25;64.20;95437.16;5111338;27;20500;-68
2021/07/26 05:46:38;;;;;;;6.22;3.88;;;;;;;20.30;64.91;95437.09;5111073;27;20040;-68
2021/07/26 05:49:05;;;;;;;6.55;3.78;;;;;;;20.42;63.87;95450.75;5110733;27;20044;-68
2021/07/26 05:51:32;;;;;;;5.70;3.45;;;;;;;20.48;60.66;95442.78;5115273;27;20046;-68
2021/07/26 05:53:59;;;;;;;6.80;3.35;;;;;;;20.51;60.50;95450.97;5113617;27;20062;-68
2021/07/26 05:56:28;;;;;;;7.85;3.35;;;;;;;20.61;60.52;95452.75;5110736;27;20051;-68
2021/07/26 05:58:57;;;;;;;9.70;3.75;;;;;;;20.69;60.95;95443.41;5108150;28;20055;-68
2021/07/26 06:01:36;;;;;;;3.95;3.25;;;;;;;20.78;59.53;95439.88;5109063;27;20046;-68
2021/07/26 06:04:04;;;;;;;7.97;3.58;;;;;;;20.74;59.73;95425.63;5108677;27;20741;-68
2021/07/26 06:06:30;;;;;;;10.63;3.03;;;;;;;20.93;60.03;95449.50;5090604;28;20043;-68
2021/07/26 06:08:57;;;;;;;4.93;2.75;;;;;;;21.03;59.44;95432.72;5112193;27;20042;-68
2021/07/26 06:11:24;;;;;;;11.13;3.58;;;;;;;21.19;57.47;95442.06;5110561;27;20513;-68
2021/07/26 06:13:51;;;;;;;9.80;3.88;;;;;;;21.17;57.89;95433.59;5092061;27;20050;-68
2021/07/26 06:16:18;;;;;;;6.85;3.30;;;;;;;21.33;58.14;95442.16;5113518;27;20032;-68
2021/07/26 06:18:45;;;;;;;9.88;3.20;;;;;;;21.50;57.35;95441.72;5115914;27;20064;-68
2021/07/26 06:21:12;;;;;;;5.95;3.47;;;;;;;21.54;56.39;95441.94;5115401;27;20058;-68
2021/07/26 06:23:39;;;;;;;7.45;3.95;;;;;;;21.64;56.29;95446.31;5110465;27;20039;-68
2021/07/26 06:26:07;;;;;;;11.68;3.10;;;;;;;21.58;56.32;95438.41;5114230;27;20044;-68
2021/07/26 06:28:34;;;;;;;5.60;3.25;;;;;;;21.63;57.03;95450.06;5116602;27;20051;-68
2021/07/26 06:31:03;;;;;;;6.70;3.38;;;;;;;21.79;55.01;95448.75;5110032;27;20085;-68
2021/07/26 06:33:30;;;;;;;5.70;3.40;;;;;;;21.86;55.48;95441.22;5109674;28;20047;-68
2021/07/26 06:35:57;;;;;;;4.45;3.20;;;;;;;22.09;56.95;95441.41;5113468;27;20032;-68
2021/07/26 06:38:24;;;;;;;11.65;2.80;;;;;;;22.19;55.35;95429.88;5109516;27;20043;-68
2021/07/26 06:40:51;;;;;;;6.45;2.90;;;;;;;22.32;55.86;95440.53;5115662;27;20043;-68
2021/07/26 06:43:17;;;;;;;6.78;3.20;;;;;;;22.27;52.44;95438.00;5109214;28;20042;-68
2021/07/26 06:45:44;;;;;;;5.78;2.70;;;;;;;22.41;54.41;95448.63;5116558;27;20560;-68
2021/07/26 06:48:11;;;;;;;6.72;2.90;;;;;;;22.47;54.23;95441.38;5109852;28;20047;-68
2021/07/26 06:50:39;;;;;;;6.30;2.88;;;;;;;22.55;52.34;95442.59;5114479;27;20538;-69
2021/07/26 06:53:07;;;;;;;3.42;2.47;;;;;;;22.77;52.58;95441.94;5118608;27;20044;-70
2021/07/26 06:55:37;;;;;;;10.00;2.60;;;;;;;22.89;52.01;95426.31;5120121;27;20420;-69
2021/07/26 06:58:06;;;;;;;8.20;2.72;;;;;;;23.02;52.03;95433.47;5117801;27;20035;-69
2021/07/26 07:00:33;;;;;;;12.27;2.95;;;;;;;23.06;51.16;95421.19;5118482;27;20047;-69
2021/07/26 07:03:00;;;;;;;6.95;2.88;;;;;;;23.16;53.59;95424.75;5118315;28;20103;-69
2021/07/26 07:05:26;;;;;;;8.18;3.33;;;;;;;23.33;52.18;95440.88;5115895;28;20039;-69
2021/07/26 07:07:53;;;;;;;9.80;3.30;;;;;;;23.46;50.31;95429.44;5115804;28;20044;-69
2021/07/26 07:10:20;;;;;;;6.00;2.75;;;;;;;23.51;51.29;95430.41;5112174;28;20046;-69
2021/07/26 07:12:50;;;;;;;5.05;2.75;;;;;;;23.58;52.07;95420.94;5114876;28;20040;-69
2021/07/26 07:15:21;;;;;;;6.43;2.92;;;;;;;23.72;48.74;95426.22;5098432;27;20051;-69
2021/07/26 07:17:48;;;;;;;6.13;3.67;;;;;;;23.66;49.77;95406.16;5120828;27;20480;-69
2021/07/26 07:20:16;;;;;;;6.43;3.55;;;;;;;23.85;49.15;95420.09;5123434;27;20039;-69
2021/07/26 07:22:43;;;;;;;5.85;2.95;;;;;;;24.03;47.65;95420.25;5121245;27;20050;-69
2021/07/26 07:25:10;;;;;;;5.50;3.58;;;;;;;24.01;47.32;95423.19;5120051;27;20055;-69
2021/07/26 07:27:37;;;;;;;8.85;3.50;;;;;;;24.06;48.76;95411.66;5122447;27;20146;-69
2021/07/26 07:30:13;;;;;;;6.13;3.60;;;;;;;24.17;51.45;95423.63;5118037;27;20055;-69
2021/07/26 07:32:40;;;;;;;6.18;3.58;;;;;;;24.20;48.00;95420.38;5114264;27;20047;-69
2021/07/26 07:35:07;;;;;;;7.65;2.97;;;;;;;24.29;47.43;95422.28;5115962;27;20050;-70
2021/07/26 07:37:34;;;;;;;3.95;2.72;;;;;;;24.45;47.18;95420.03;5113460;27;20451;-69
2021/07/26 07:40:01;;;;;;;8.88;3.72;;;;;;;24.52;47.05;95421.16;5123112;27;20035;-69
2021/07/26 07:42:30;;;;;;;6.82;3.20;;;;;;;24.54;46.61;95427.03;5115498;27;20036;-69
2021/07/26 07:44:57;;;;;;;7.22;3.25;;;;;;;24.54;44.77;95418.22;5122965;27;20171;-69
2021/07/26 07:47:24;;;;;;;8.00;3.20;;;;;;;24.61;47.15;95424.72;5114454;27;20050;-69
2021/07/26 07:49:51;;;;;;;10.80;3.55;;;;;;;24.78;45.69;95429.31;5117947;27;20505;-69
2021/07/26 07:52:17;;;;;;;5.97;2.80;;;;;;;24.80;45.88;95421.03;5111956;28;20035;-69
2021/07/26 07:54:44;;;;;;;5.45;4.05;;;;;;;25.03;46.59;95426.28;5119465;27;20043;-69
2021/07/26 07:57:12;;;;;;;7.45;3.08;;;;;;;25.12;44.57;95421.75;5120629;27;20082;-69
2021/07/26 07:59:40;;;;;;;10.13;3.00;;;;;;;25.26;45.86;95417.13;5116117;27;20044;-69
2021/07/26 08:02:07;;;;;;;7.72;2.88;;;;;;;25.50;45.24;95418.59;5121245;27;20043;-69
2021/07/26 08:04:35;;;;;;;7.53;2.72;;;;;;;25.76;45.74;95426.63;5099760;27;20044;-69
2021/07/26 08:07:20;;;;;;;9.15;3.45;;;;;;;25.65;43.86;95422.69;5119143;27;20060;-69
2021/07/26 08:09:46;;;;;;;8.95;3.20;;;;;;;25.68;43.48;95417.50;5118660;27;20049;-69
2021/07/26 08:12:14;;;;;;;7.07;3.60;;;;;;;25.85;42.76;95421.28;5120723;27;20152;-70
2021/07/26 08:14:41;;;;;;;10.65;6.43;;;;;;;25.89;45.88;95419.53;5118160;27;20039;-70
2021/07/26 08:17:07;;;;;;;8.63;3.78;;;;;;;26.07;43.39;95426.50;5116878;27;20038;-70
2021/07/26 08:19:34;;;;;;;4.68;3.03;;;;;;;26.33;40.97;95420.34;5117589;27;20488;-71
2021/07/26 08:22:01;;;;;;;5.28;2.47;;;;;;;26.41;41.62;95406.16;5124298;27;20043;-70
2021/07/26 08:24:28;;;;;;;6.07;2.72;;;;;;;26.67;41.21;95410.69;5125822;27;21341;-69
2021/07/26 08:26:55;;;;;;;5.82;2.70;;;;;;;26.78;39.12;95401.22;5119461;27;20043;-69
2021/07/26 08:29:22;;;;;;;4.65;3.65;;;;;;;26.97;39.27;95410.72;5123383;27;20031;-70
2021/07/26 08:31:49;;;;;;;6.78;3.25;;;;;;;27.29;38.12;95411.22;5127183;27;20031;-70
2021/07/26 08:34:16;;;;;;;6.07;3.08;;;;;;;27.47;38.64;95407.34;5124700;27;20035;-70
2021/07/26 08:36:42;;;;;;;5.88;3.08;;;;;;;27.47;39.26;95391.28;5120358;27;20036;-70
2021/07/26 08:39:09;;;;;;;8.20;2.97;;;;;;;27.67;39.78;95399.66;5127175;27;20047;-70
2021/07/26 08:41:36;;;;;;;11.65;4.35;;;;;;;27.81;38.97;95405.53;5117079;27;20051;-70
2021/07/26 08:44:03;;;;;;;7.55;3.90;;;;;;;27.94;37.08;95399.13;5119917;27;20374;-70
2021/07/26 08:46:31;;;;;;;8.88;3.35;;;;;;;28.14;40.24;95402.09;5126188;27;20039;-70
2021/07/26 08:49:00;;;;;;;5.88;4.55;;;;;;;28.44;36.36;95393.94;5122903;27;20059;-70
2021/07/26 08:51:28;;;;;;;7.75;3.30;;;;;;;28.57;34.90;95398.25;5120045;27;20036;-70
2021/07/26 08:53:58;;;;;;;6.18;3.60;;;;;;;28.51;35.00;95392.28;5123732;27;20040;-70
2021/07/26 08:56:46;;;;;;;9.20;3.33;;;;;;;28.76;35.26;95406.53;5122260;27;20110;-70
2021/07/26 08:59:12;;;;;;;11.00;3.53;;;;;;;28.99;35.63;95403.41;5125502;27;20047;-70
2021/07/26 09:01:43;;;;;;;9.95;3.47;;;;;;;29.31;34.23;95409.00;5116374;27;20055;-70
2021/07/26 09:04:10;;;;;;;7.15;3.45;;;;;;;29.51;34.06;95402.75;5118211;27;20475;-70
2021/07/26 09:06:39;;;;;;;9.27;3.65;;;;;;;29.38;38.48;95403.88;5123191;27;20429;-71
2021/07/26 09:09:05;;;;;;;3.75;3.40;;;;;;;29.42;33.74;95399.38;5118929;27;20515;-71
2021/07/26 09:11:45;;;;;;;14.48;4.43;;;;;;;29.45;36.06;95387.97;5120119;27;20058;-71
2021/07/26 09:14:36;;;;;;;8.88;3.67;;;;;;;29.67;32.85;95399.34;5123650;27;20385;-71
2021/07/26 09:17:05;;;;;;;5.88;3.50;;;;;;;29.91;33.12;95393.16;5120512;27;20122;-71
2021/07/26 09:20:00;;;;;;;7.93;3.80;;;;;;;30.01;31.61;95392.66;5119432;27;20048;-71
2021/07/26 09:22:32;;;;;;;7.90;3.63;;;;;;;29.84;33.00;95399.09;5119459;27;20106;-71
2021/07/26 09:25:21;;;;;;;13.18;4.80;;;;;;;30.26;33.40;95404.06;5115478;27;20042;-71
2021/07/26 09:28:07;;;;;;;5.90;3.90;;;;;;;30.34;31.91;95396.22;5111612;27;20040;-72
2021/07/26 09:30:44;;;;;;;7.20;4.07;;;;;;;30.62;30.95;95399.63;5107922;28;20089;-72
2021/07/26 09:33:16;;;;;;;5.10;3.65;;;;;;;30.39;32.37;95391.38;5111596;27;20069;-71
2021/07/26 09:35:44;;;;;;;8.30;4.47;;;;;;;30.12;31.78;95395.63;5103517;27;20055;-72
2021/07/26 09:38:11;;;;;;;6.40;3.58;;;;;;;30.20;32.08;95394.72;5104257;27;20039;-72
2021/07/26 09:40:38;;;;;;;6.80;3.83;;;;;;;30.43;32.93;95394.97;5106265;27;20052;-71
2021/07/26 09:43:19;;;;;;;6.28;3.33;;;;;;;30.85;31.71;95396.38;5105653;27;20047;-72
2021/07/26 09:45:50;;;;;;;4.68;3.58;;;;;;;30.82;32.53;95397.06;5106612;27;20043;-71
2021/07/26 09:48:19;;;;;;;7.47;4.20;;;;;;;31.07;31.05;95394.97;5106331;27;20049;-72
2021/07/26 09:50:47;;;;;;;5.22;4.07;;;;;;;31.27;31.02;95390.44;5106269;27;20439;-72
2021/07/26 09:53:24;;;;;;;9.07;3.78;;;;;;;31.63;31.55;95391.22;5108321;27;20051;-72
2021/07/26 09:55:53;;;;;;;12.63;5.07;;;;;;;31.93;28.88;95390.69;5107639;27;20092;-72
2021/07/26 09:58:40;;;;;;;4.57;3.55;;;;;;;32.23;28.90;95390.13;5106786;27;20046;-72
2021/07/26 10:01:09;;;;;;;7.63;3.92;;;;;;;32.43;28.08;95394.34;5107786;27;20039;-72
2021/07/26 10:03:38;;;;;;;6.50;3.20;;;;;;;32.45;28.72;95381.28;5106261;28;20040;-72
2021/07/26 10:06:10;;;;;;;5.97;4.28;;;;;;;32.53;29.99;95388.34;5110598;27;20027;-72
2021/07/26 10:08:41;;;;;;;10.13;3.60;;;;;;;32.81;29.74;95387.31;5106037;27;20040;-72
2021/07/26 10:11:09;;;;;;;9.15;4.38;;;;;;;33.22;26.93;95379.44;5108716;27;20054;-72
2021/07/26 10:13:41;;;;;;;4.10;3.20;;;;;;;33.46;26.94;95391.00;5104510;27;20040;-72
2021/07/26 10:16:18;;;;;;;7.45;3.70;;;;;;;33.65;26.98;95385.47;5105318;28;20512;-72
2021/07/26 10:18:46;;;;;;;7.70;3.47;;;;;;;33.83;27.23;95387.63;5103370;27;20070;-73
2021/07/26 10:21:19;;;;;;;6.93;3.63;;;;;;;33.79;31.02;95394.91;5105314;28;20421;-72
2021/07/26 10:23:54;;;;;;;6.93;3.95;;;;;;;33.85;28.71;95388.03;5102779;28;20043;-73
2021/07/26 10:26:32;;;;;;;5.45;3.40;;;;;;;34.13;26.42;95397.63;5109051;27;20122;-73
2021/07/26 10:28:59;;;;;;;9.25;3.25;;;;;;;34.34;26.09;95397.06;5104394;27;20051;-73
2021/07/26 10:31:30;;;;;;;4.85;3.42;;;;;;;34.52;27.15;95398.06;5103616;27;20039;-73
2021/07/26 10:34:03;;;;;;;6.25;3.63;;;;;;;34.82;26.00;95392.53;5104852;28;20051;-73
2021/07/26 10:36:42;;;;;;;8.27;3.42;;;;;;;35.07;25.90;95404.72;5106094;28;20101;-73
2021/07/26 10:39:10;;;;;;;8.63;3.50;;;;;;;35.37;25.27;95396.44;5105832;28;20554;-73
2021/07/26 10:41:42;;;;;;;7.95;3.83;;;;;;;35.46;24.73;95393.41;5104845;27;20063;-73
2021/07/26 10:44:30;;;;;;;7.78;3.83;;;;;;;35.36;24.15;95397.56;5105870;28;20043;-72
2021/07/26 10:46:57;;;;;;;5.53;3.53;;;;;;;35.22;24.65;95390.94;5105693;28;20050;-73
2021/07/26 10:49:50;;;;;;;13.02;4.38;;;;;;;35.15;25.26;95385.44;5105566;28;20492;-72
2021/07/26 10:52:37;;;;;;;6.03;3.88;;;;;;;35.35;23.68;95382.50;5105420;28;20052;-74
2021/07/26 10:55:05;;;;;;;7.28;3.63;;;;;;;35.38;23.31;95381.72;5072981;28;20433;-74
2021/07/26 10:57:46;;;;;;;11.25;4.07;;;;;;;35.39;24.53;95377.88;5105684;28;20040;-74
2021/07/26 11:00:22;;;;;;;10.57;4.28;;;;;;;35.49;23.76;95371.75;5105125;28;20043;-73
2021/07/26 11:02:50;;;;;;;5.65;3.50;;;;;;;35.50;24.58;95373.28;5105670;28;20039;-74
2021/07/26 11:05:26;;;;;;;6.03;3.85;;;;;;;35.78;23.93;95377.28;5105133;28;20075;-74
2021/07/26 11:08:13;;;;;;;11.90;4.40;;;;;;;36.17;23.44;95371.22;5104985;28;20027;-74
2021/07/26 11:10:47;;;;;;;11.18;4.30;;;;;;;36.34;23.08;95365.13;5105947;28;20062;-74
2021/07/26 11:13:17;;;;;;;12.18;3.97;;;;;;;36.01;23.82;95368.09;5105575;28;20043;-74
2021/07/26 11:15:44;;;;;;;8.60;3.92;;;;;;;36.23;21.27;95369.75;5104597;28;20042;-74
2021/07/26 11:18:24;;;;;;;15.27;4.20;;;;;;;36.40;21.18;95370.16;5105845;28;20405;-74
2021/07/26 11:20:57;;;;;;;10.55;4.00;;;;;;;36.15;22.58;95365.44;5104900;28;20039;-74
2021/07/26 11:23:53;;;;;;;7.63;4.45;;;;;;;36.59;20.46;95361.66;5104722;28;20040;-73
2021/07/26 11:26:28;;;;;;;5.72;3.70;;;;;;;36.68;21.52;95367.50;5103749;28;20036;-74
2021/07/26 11:29:00;;;;;;;6.82;3.70;;;;;;;36.85;20.51;95370.59;5107523;28;20051;-73
2021/07/26 11:31:28;;;;;;;6.82;4.35;;;;;;;37.15;21.27;95369.38;5104005;28;20054;-74
2021/07/26 11:34:14;;;;;;;8.80;3.80;;;;;;;37.32;20.87;95357.75;5104804;28;20419;-74
2021/07/26 11:37:08;;;;;;;13.35;3.97;;;;;;;37.24;21.77;95353.50;5104946;28;20413;-75
2021/07/26 11:39:59;;;;;;;13.68;4.57;;;;;;;37.37;19.74;95351.16;5104563;28;20048;-74
2021/07/26 11:42:28;;;;;;;7.63;4.10;;;;;;;37.81;18.62;95358.00;5093740;28;20428;-75
2021/07/26 11:44:56;;;;;;;6.63;4.00;;;;;;;38.06;18.32;95347.00;5105282;28;20404;-73